Terminal Aerodrome Forecast
Issued by NWS Cleveland, OH

Home | Current Version | Previous Version | Graphics & Text | Print | Product List | Glossary On
Versions: 1 2 3 4 5 6 7 8 9 10 11 12 13 14 15 16
000
FTUS41 KCLE 271120
TAFYNG
TAF
KYNG 271120Z 2712/2812 15010KT P6SM SCT100 BKN250
     FM271500 18015G25KT P6SM SCT050 OVC100
      TEMPO 2720/2722 5SM -TSRA BKN035CB OVC050
     FM272300 23015G25KT P6SM OVC050
     FM280300 24010KT P6SM OVC050=

USA.gov is the U.S. government's official web portal to all federal, state and local government web resources and services.